Budapest Ferihegy, Hungary

11:16 AM CEST on June 30, 2015 (GMT +0200)
Budapest | | Change Station
CLOSE
Current Station
Personal Weather Station
Location: Budapest, BUDAPEST
Elevation: 417 ft
Nearby Weather Stations

Elev 417 ft 47.42 °N, 19.21 °E | Updated 5 minutes ago

Scattered Clouds
Scattered Clouds
79.2 °F
Feels Like 79 °F
N
0.0
Wind Variable Wind from North
Gusts 1.6 mph

Today
High -- | Low -- °F
--% Chance of Precip.
Yesterday
High -- | Low -- °F
Precip. -- in
4:49 AM 8:43 PM
Waxing Gibbous, 96% visible
Pressure 30.15 in
Visibility 6.2 miles
Clouds Few 4400 ft
Scattered Clouds 6000 ft
Heat Index 79 °F
Dew Point 53 °F
Humidity 41%
Rainfall in
Snow Depth Not available.
UV 7 out of 12
Pollen Not available.
Air Quality Not available.
Flu Activity Not available.
METAR LHBP 300900Z 21004KT 110V280 9999 FEW044 SCT060 24/10 Q1021 NOSIG

More Conditions Fewer Conditions

Pressure 30.15 in
Visibility 6.2 miles
Clouds Few 4400 ft
Scattered Clouds 6000 ft
Heat Index 79 °F
Dew Point 53 °F
Humidity 41%
Rainfall in
Snow Depth Not available.
UV 7 out of 12
Pollen Not available.
Air Quality Not available.
Flu Activity Not available.
METAR LHBP 300900Z 21004KT 110V280 9999 FEW044 SCT060 24/10 Q1021 NOSIG

More Conditions Fewer Conditions

10-Day Weather Forecast

×

Almanac

Astronomy

Jun. 30, 2015 Rise Set
Actual Time
Civil Twilight
Nautical Twilight
Astronomical Twilight
Moon
Length of Visible Light
Length of Day
Tomorrow will be .
, % of the Moon is Illuminated

Today's Extremes

Country Highs Country Lows

Community

WunderPhotos

Upload Photos

1,833,983 photos uploaded!

WunderBlogs® & News

Nearby

Air Quality

  Air Quality AQ Index Pollutant
Not available.

Snow Depth

Station Depth Elevation

Earthquake Activity

City Distance Mag. Time & Date
Minimum magnitude displayed is 2.5.

Coastal Water Temperatures

Place Temperature

Stations

Nearby Weather Stations

Station Location Temp. Windchill Dew Point Humidity Wind Precip. Elev Updated Type